Airfield :
LOGIN :

Register | Disclaimer

   EN    FR    IT 

 










Legend :    VFR   Marginal VFR   IFR   Intensive IFR   Very Intensive IFR
Visi :
Ceiling :
>= 8 km
>= 3000ft
5 to 8 km
1000 to 3000 ft
1500m to 5 km
500 to 1000 ft
800 to 1500m
200 to 500 ft
< 800m
< 200 ft
Symbols :   Thunderstorms  Fog  Heavy snow  Heavy precipitations  Wind > 20 kt
SIGMETs :     Misc.  Thunderstorms  Icing  Turbulence  Mountain Waves  Volcanic Ashes







- Airport Elevation : 1910 ft
- IATA code : RDZ
- Download approach charts


LFCR - Rodez

EXPIRED METARs :
  • 241430Z AUTO 28009KT 250V310 9999 FEW032 24/15 Q1020 NOSIG
  • 241400Z AUTO 30009KT 250V340 CAVOK 24/15 Q1021 NOSIG
  • 241330Z AUTO 28008KT 230V330 CAVOK 24/15 Q1021 NOSIG
  • 241300Z AUTO 31007KT 260V020 9999 FEW026 SCT084 23/15 Q1021 NOSIG
  • 241230Z AUTO 30006KT 230V350 9999 FEW025 SCT086 23/14 Q1021 NOSIG
  • 241200Z AUTO 32007KT 260V020 9999 BKN022 BKN088 22/14 Q1022 NOSIG

Expired Forecast.
No reported NOTAMs for that airfield.



MET'MAP, your aeronautical weather chart ! - Copyright ORBIFLY December 2007 - Disclaimer

ORBIFLY MET'MAP TEAM :

Programming & Development : Alexandra Zaïnal
Concept & Development : Baudouin d'Aumeries
Co-Development & Prog : Marc-Olivier Méhu
Technical & hardware support : Manuel Goepfert

Contact : metmap@orbifly.com




SOURCES & CREDITS :

   NOAA